createdAt,value
2019-02-18T00:02:22.505Z,4.97
2019-02-18T00:04:51.453Z,4.92
2019-02-18T00:07:20.379Z,4.91
2019-02-18T00:09:49.310Z,4.86
2019-02-18T00:12:18.271Z,4.80
2019-02-18T00:14:47.210Z,4.75
2019-02-18T00:17:16.077Z,4.67
2019-02-18T00:19:45.014Z,4.63
2019-02-18T00:22:13.971Z,4.61
2019-02-18T00:24:42.908Z,4.59
2019-02-18T00:27:11.784Z,4.55
2019-02-18T00:29:40.739Z,4.51
2019-02-18T00:32:09.756Z,4.46
2019-02-18T00:34:38.652Z,4.43
2019-02-18T00:37:07.542Z,4.40
2019-02-18T00:39:36.390Z,4.37
2019-02-18T00:42:05.343Z,4.35
2019-02-18T00:44:34.288Z,4.31
2019-02-18T00:47:03.216Z,4.30
2019-02-18T00:49:32.174Z,4.27
2019-02-18T00:52:00.995Z,4.20
2019-02-18T00:54:29.988Z,4.21
2019-02-18T00:56:58.919Z,4.19
2019-02-18T00:59:27.853Z,4.18
2019-02-18T01:01:56.723Z,4.16
2019-02-18T01:04:25.661Z,4.09
2019-02-18T01:06:54.622Z,4.04
2019-02-18T01:09:23.541Z,3.98
2019-02-18T01:11:52.525Z,3.97
2019-02-18T01:14:21.439Z,3.96
2019-02-18T01:16:50.327Z,3.96
2019-02-18T01:19:19.239Z,3.93
2019-02-18T01:21:48.221Z,3.92
2019-02-18T01:24:17.082Z,3.86
2019-02-18T01:26:46.010Z,3.83
2019-02-18T01:29:14.917Z,3.78
2019-02-18T01:31:43.862Z,3.74
2019-02-18T01:34:12.831Z,3.73
2019-02-18T01:36:41.666Z,3.69
2019-02-18T01:39:10.556Z,3.63
2019-02-18T01:41:39.478Z,3.61
2019-02-18T01:44:08.408Z,3.56
2019-02-18T01:46:37.346Z,3.55
2019-02-18T01:49:06.208Z,3.54
2019-02-18T01:51:35.157Z,3.48
2019-02-18T01:54:04.012Z,3.44
2019-02-18T01:56:32.963Z,3.44
2019-02-18T01:59:01.868Z,3.45
2019-02-18T02:01:30.802Z,3.44
2019-02-18T02:03:59.739Z,3.42
2019-02-18T02:06:28.665Z,3.39
2019-02-18T02:08:57.611Z,3.38
2019-02-18T02:11:26.517Z,3.39
2019-02-18T02:13:55.296Z,3.37
2019-02-18T02:16:24.211Z,3.38
2019-02-18T02:18:53.159Z,3.33
2019-02-18T02:21:22.073Z,3.33
2019-02-18T02:23:51.084Z,3.35
2019-02-18T02:26:20.017Z,3.33
2019-02-18T02:28:48.967Z,3.31
2019-02-18T02:31:17.908Z,3.30
2019-02-18T02:33:46.841Z,3.30
2019-02-18T02:36:15.766Z,3.27
2019-02-18T02:38:44.715Z,3.25
2019-02-18T02:41:13.635Z,3.24
2019-02-18T02:43:42.582Z,3.23
2019-02-18T02:46:11.432Z,3.19
2019-02-18T02:48:40.348Z,3.16
2019-02-18T02:51:09.306Z,3.14
2019-02-18T02:53:38.253Z,3.11
2019-02-18T02:56:07.172Z,3.11
2019-02-18T02:58:36.088Z,3.08
2019-02-18T03:01:04.996Z,3.03
2019-02-18T03:03:33.915Z,2.99
2019-02-18T03:06:02.841Z,2.97
2019-02-18T03:08:31.757Z,2.97
2019-02-18T03:11:00.677Z,2.96
2019-02-18T03:13:29.609Z,2.94
2019-02-18T03:15:58.533Z,2.93
2019-02-18T03:18:27.492Z,2.89
2019-02-18T03:20:56.409Z,2.90
2019-02-18T03:23:25.333Z,2.88
2019-02-18T03:25:55.229Z,2.86
2019-02-18T03:28:45.864Z,2.84
2019-02-18T03:31:19.482Z,2.81
2019-02-18T03:33:55.359Z,2.77
2019-02-18T03:36:24.309Z,2.76
2019-02-18T03:38:53.261Z,2.74
2019-02-18T03:41:22.184Z,2.71
2019-02-18T03:43:51.092Z,2.68
2019-02-18T03:46:20.117Z,2.67
2019-02-18T03:48:49.030Z,2.66
2019-02-18T03:51:17.972Z,2.63
2019-02-18T03:53:46.806Z,2.60
2019-02-18T03:56:15.745Z,2.57
2019-02-18T03:58:44.788Z,2.56
2019-02-18T04:01:13.761Z,2.53
2019-02-18T04:03:42.658Z,2.50
2019-02-18T04:06:11.430Z,2.49
2019-02-18T04:08:43.249Z,2.46
2019-02-18T04:11:11.005Z,2.40
2019-02-18T04:13:39.918Z,2.35
2019-02-18T04:16:08.872Z,2.30
2019-02-18T04:18:37.765Z,2.29
2019-02-18T04:21:06.689Z,2.27
2019-02-18T04:23:35.619Z,2.25
2019-02-18T04:26:04.535Z,2.22
2019-02-18T04:28:33.441Z,2.20
2019-02-18T04:31:02.400Z,2.15
2019-02-18T04:33:31.336Z,2.10
2019-02-18T04:36:00.252Z,2.10
2019-02-18T04:38:29.244Z,2.08
2019-02-18T04:40:58.223Z,2.08
2019-02-18T04:43:27.132Z,2.07
2019-02-18T04:45:56.087Z,2.06
2019-02-18T04:48:24.995Z,2.05
2019-02-18T04:50:53.936Z,1.97
2019-02-18T04:53:22.881Z,1.91
2019-02-18T04:55:51.726Z,1.88
2019-02-18T04:58:20.675Z,1.86
2019-02-18T05:00:49.572Z,1.84
2019-02-18T05:03:18.510Z,1.83
2019-02-18T05:05:47.384Z,1.80
2019-02-18T05:08:16.352Z,1.77
2019-02-18T05:10:45.354Z,1.73
2019-02-18T05:13:14.295Z,1.73
2019-02-18T05:15:43.261Z,1.75
2019-02-18T05:18:12.186Z,1.73
2019-02-18T05:20:41.169Z,1.71
2019-02-18T05:23:10.121Z,1.70
2019-02-18T05:25:39.075Z,1.68
2019-02-18T05:28:07.943Z,1.68
2019-02-18T05:30:36.751Z,1.66
2019-02-18T05:33:05.701Z,1.64
2019-02-18T05:35:34.579Z,1.65
2019-02-18T05:38:03.524Z,1.66
2019-02-18T05:40:32.479Z,1.64
2019-02-18T05:43:01.299Z,1.61
2019-02-18T05:45:30.140Z,1.55
2019-02-18T05:47:59.045Z,1.51
2019-02-18T05:50:27.985Z,1.47
2019-02-18T05:52:56.917Z,1.45
2019-02-18T05:55:25.873Z,1.43
2019-02-18T05:57:54.848Z,1.41
2019-02-18T06:00:23.759Z,1.40
2019-02-18T06:02:52.702Z,1.38
2019-02-18T06:05:21.631Z,1.39
2019-02-18T06:07:50.554Z,1.35
2019-02-18T06:10:21.612Z,1.38
2019-02-18T06:12:50.183Z,1.35
2019-02-18T06:15:19.144Z,1.35
2019-02-18T06:17:48.105Z,1.38
2019-02-18T06:20:16.956Z,1.36
2019-02-18T06:22:45.814Z,1.35
2019-02-18T06:25:14.743Z,1.35
2019-02-18T06:27:43.735Z,1.35
2019-02-18T06:30:12.660Z,1.34
2019-02-18T06:32:41.578Z,1.34
2019-02-18T06:35:11.307Z,1.30
2019-02-18T06:37:40.188Z,1.30
2019-02-18T06:40:09.322Z,1.24
2019-02-18T06:42:38.272Z,1.21
2019-02-18T06:45:35.230Z,1.17
2019-02-18T06:48:25.953Z,1.13
2019-02-18T06:50:54.887Z,1.16
2019-02-18T06:53:23.861Z,1.27
2019-02-18T06:55:52.844Z,1.27
2019-02-18T06:58:41.289Z,1.44
2019-02-18T07:01:18.141Z,1.72
2019-02-18T07:04:04.461Z,2.12
2019-02-18T07:06:39.989Z,2.43
2019-02-18T07:09:27.926Z,2.66
2019-02-18T07:12:21.752Z,3.11
2019-02-18T07:14:50.688Z,3.55
2019-02-18T07:17:19.639Z,3.86
2019-02-18T07:19:48.653Z,4.89
2019-02-18T07:22:17.597Z,6.32
2019-02-18T07:24:46.552Z,7.67
2019-02-18T07:27:15.407Z,8.47
2019-02-18T07:29:44.358Z,8.67
2019-02-18T07:32:13.296Z,8.69
2019-02-18T07:34:42.252Z,8.97
2019-02-18T07:37:11.107Z,9.59
2019-02-18T07:39:40.090Z,10.21
2019-02-18T07:42:09.005Z,10.74
2019-02-18T07:44:37.900Z,10.99
2019-02-18T07:47:07.062Z,11.19
2019-02-18T07:49:36.063Z,11.65
2019-02-18T07:52:05.006Z,12.10
2019-02-18T07:54:33.898Z,12.32
2019-02-18T07:57:02.848Z,12.22
2019-02-18T07:59:31.735Z,12.00
2019-02-18T08:02:00.673Z,11.98
2019-02-18T08:04:29.687Z,12.04
2019-02-18T08:06:58.618Z,11.78
2019-02-18T08:09:27.703Z,11.75
2019-02-18T08:11:56.649Z,11.86
2019-02-18T08:14:25.647Z,11.88
2019-02-18T08:16:54.577Z,11.70
2019-02-18T08:19:23.513Z,11.68
2019-02-18T08:21:52.525Z,11.89
2019-02-18T08:24:21.477Z,12.23
2019-02-18T08:26:50.423Z,12.55
2019-02-18T08:29:19.376Z,13.08
2019-02-18T08:31:48.330Z,13.57
2019-02-18T08:34:17.320Z,13.76
2019-02-18T08:36:46.291Z,13.79
2019-02-18T08:39:15.253Z,14.09
2019-02-18T08:41:44.232Z,14.33
2019-02-18T08:44:13.178Z,14.50
2019-02-18T08:46:42.274Z,14.88
2019-02-18T08:49:11.234Z,15.39
2019-02-18T08:51:40.196Z,15.67
2019-02-18T08:54:09.136Z,15.90
2019-02-18T08:56:38.109Z,16.20
2019-02-18T08:59:06.989Z,16.61
2019-02-18T09:01:35.963Z,17.01
2019-02-18T09:04:04.960Z,17.52
2019-02-18T09:06:33.921Z,18.14
2019-02-18T09:09:02.867Z,18.82
2019-02-18T09:11:31.811Z,19.59
2019-02-18T09:14:00.749Z,20.28
2019-02-18T09:16:29.679Z,21.02
2019-02-18T09:18:58.621Z,21.73
2019-02-18T09:24:22.484Z,22.66
2019-02-18T09:26:51.564Z,22.94
2019-02-18T09:29:20.511Z,23.07
2019-02-18T09:31:49.463Z,23.21
2019-02-18T09:34:18.389Z,23.03
2019-02-18T09:36:47.346Z,22.93
2019-02-18T09:39:30.092Z,23.09
2019-02-18T09:41:49.386Z,22.86
2019-02-18T09:44:18.383Z,22.84
2019-02-18T09:46:47.353Z,23.03
2019-02-18T09:49:16.262Z,23.18
2019-02-18T09:51:45.245Z,23.08
2019-02-18T09:54:14.184Z,22.99
2019-02-18T09:56:43.142Z,22.97
2019-02-18T09:59:14.715Z,23.15
2019-02-18T10:01:43.710Z,23.20
2019-02-18T10:04:13.031Z,22.63
2019-02-18T10:06:41.992Z,22.16
2019-02-18T10:09:10.952Z,22.11
2019-02-18T10:11:39.829Z,22.05
2019-02-18T10:14:08.815Z,22.10
2019-02-18T10:16:37.779Z,22.39
2019-02-18T10:19:06.677Z,22.64
2019-02-18T10:21:35.615Z,22.59
2019-02-18T10:24:04.477Z,22.50
2019-02-18T10:26:33.480Z,22.10
2019-02-18T10:29:02.497Z,22.04
2019-02-18T10:31:31.479Z,22.24
2019-02-18T10:34:00.445Z,22.28
2019-02-18T10:36:29.381Z,22.26
2019-02-18T10:38:58.387Z,22.04
2019-02-18T10:41:27.362Z,21.76
2019-02-18T10:43:56.315Z,21.78
2019-02-18T10:46:25.306Z,21.55
2019-02-18T10:48:54.300Z,21.29
2019-02-18T10:51:23.262Z,21.08
2019-02-18T10:53:53.154Z,20.75
2019-02-18T10:56:22.172Z,20.35
2019-02-18T10:58:51.140Z,20.01
2019-02-18T11:01:20.104Z,19.70
2019-02-18T11:03:49.132Z,19.44
2019-02-18T11:06:18.080Z,18.96
2019-02-18T11:08:47.045Z,18.91
2019-02-18T11:11:17.190Z,19.01
2019-02-18T11:13:46.234Z,19.01
2019-02-18T11:16:15.201Z,19.00
2019-02-18T11:18:44.160Z,19.13
2019-02-18T11:21:13.324Z,19.12
2019-02-18T11:23:42.355Z,18.97
2019-02-18T11:26:11.389Z,18.72
2019-02-18T11:28:40.318Z,18.65
2019-02-18T11:31:09.246Z,18.67
2019-02-18T11:33:38.207Z,18.60
2019-02-18T11:36:10.281Z,18.54
2019-02-18T11:38:39.278Z,18.47
2019-02-18T11:41:08.275Z,18.42
2019-02-18T11:43:37.209Z,18.30
2019-02-18T11:46:06.163Z,18.40
2019-02-18T11:48:35.570Z,18.50
2019-02-18T11:51:04.461Z,18.47
2019-02-18T11:53:33.428Z,18.36
2019-02-18T11:56:02.393Z,18.14
2019-02-18T11:58:31.351Z,18.19
2019-02-18T12:01:00.322Z,18.15
2019-02-18T12:03:29.456Z,18.17
2019-02-18T12:05:58.358Z,18.14
2019-02-18T12:08:27.260Z,18.09
2019-02-18T12:10:56.241Z,17.68
2019-02-18T12:13:25.196Z,18.08
2019-02-18T12:15:54.146Z,18.07
2019-02-18T12:18:23.079Z,18.12
2019-02-18T12:20:52.074Z,18.10
2019-02-18T12:23:21.084Z,18.15
2019-02-18T12:25:50.006Z,18.13
2019-02-18T12:28:19.003Z,18.13
2019-02-18T12:30:47.988Z,18.05
2019-02-18T12:33:16.955Z,18.04
2019-02-18T12:35:46.159Z,18.00
2019-02-18T12:38:17.346Z,18.00
2019-02-18T12:40:45.747Z,17.92
2019-02-18T12:43:14.737Z,17.92
2019-02-18T12:45:43.609Z,17.96
2019-02-18T12:48:12.606Z,18.01
2019-02-18T12:50:41.621Z,17.99
2019-02-18T12:53:10.580Z,18.07
2019-02-18T12:55:39.554Z,17.80
2019-02-18T12:58:08.528Z,17.68
2019-02-18T13:00:37.480Z,17.66
2019-02-18T13:03:06.428Z,17.61
2019-02-18T13:05:35.483Z,17.63
2019-02-18T13:08:04.902Z,17.68
2019-02-18T13:10:34.797Z,17.82
2019-02-18T13:13:05.387Z,17.90
2019-02-18T13:15:34.308Z,17.98
2019-02-18T13:20:40.575Z,18.02
2019-02-18T13:23:12.181Z,17.97
2019-02-18T13:25:47.381Z,17.85
2019-02-18T13:28:11.913Z,17.95
2019-02-18T13:30:40.861Z,17.90
2019-02-18T13:33:09.825Z,17.85
2019-02-18T13:35:38.943Z,17.79
2019-02-18T13:38:08.345Z,17.76
2019-02-18T13:40:37.321Z,17.77
2019-02-18T13:43:06.381Z,17.68
2019-02-18T13:45:35.351Z,17.66
2019-02-18T13:48:04.440Z,17.67
2019-02-18T13:50:33.369Z,17.65
2019-02-18T13:53:02.302Z,17.64
2019-02-18T13:55:31.303Z,17.61
2019-02-18T13:58:00.319Z,17.58
2019-02-18T14:00:29.303Z,17.60
2019-02-18T14:02:58.252Z,17.62
2019-02-18T14:05:27.202Z,17.63
2019-02-18T14:07:56.202Z,17.59
2019-02-18T14:10:25.083Z,17.66
2019-02-18T14:12:54.088Z,17.65
2019-02-18T14:15:23.048Z,17.65
2019-02-18T14:17:52.102Z,17.64
2019-02-18T14:20:22.518Z,17.62
2019-02-18T14:22:51.496Z,17.68
2019-02-18T14:25:20.638Z,17.58
2019-02-18T14:27:49.634Z,17.49
2019-02-18T14:30:18.591Z,17.51
2019-02-18T14:32:47.795Z,17.49
2019-02-18T14:35:17.213Z,17.51
2019-02-18T14:37:46.165Z,17.58
2019-02-18T14:40:16.459Z,17.52
2019-02-18T14:42:45.412Z,17.51
2019-02-18T14:45:14.337Z,17.45
2019-02-18T14:47:43.327Z,17.41
2019-02-18T14:50:12.231Z,17.36
2019-02-18T14:52:41.095Z,17.38
2019-02-18T14:55:10.081Z,17.38
2019-02-18T14:57:39.119Z,17.35
2019-02-18T15:00:16.053Z,17.30
2019-02-18T15:02:45.017Z,17.21
2019-02-18T15:05:14.165Z,17.23
2019-02-18T15:07:43.543Z,17.28
2019-02-18T15:10:12.481Z,17.32
2019-02-18T15:12:41.428Z,17.28
2019-02-18T15:15:10.413Z,17.22
2019-02-18T15:17:39.403Z,17.13
2019-02-18T15:20:08.373Z,17.05
2019-02-18T15:22:37.844Z,16.99
2019-02-18T15:25:07.026Z,16.99
2019-02-18T15:27:36.020Z,16.87
2019-02-18T15:30:06.551Z,16.84
2019-02-18T15:32:35.506Z,16.81
2019-02-18T15:35:04.592Z,16.79
2019-02-18T15:37:33.822Z,16.73
2019-02-18T15:40:02.896Z,16.69
2019-02-18T15:42:31.802Z,16.65
2019-02-18T15:45:00.820Z,16.57
2019-02-18T15:47:29.741Z,16.42
2019-02-18T15:49:58.725Z,16.29
2019-02-18T15:52:28.060Z,16.19
2019-02-18T15:54:57.060Z,16.13
2019-02-18T15:57:26.007Z,16.06
2019-02-18T15:59:54.981Z,15.97
2019-02-18T16:02:23.891Z,15.88
2019-02-18T16:04:52.969Z,15.78
2019-02-18T16:07:22.427Z,15.71
2019-02-18T16:09:51.412Z,15.63
2019-02-18T16:12:20.397Z,15.54
2019-02-18T16:14:49.366Z,15.42
2019-02-18T16:17:18.390Z,15.28
2019-02-18T16:19:47.409Z,15.15
2019-02-18T16:22:17.226Z,15.00
2019-02-18T16:24:46.112Z,14.82
2019-02-18T16:27:15.072Z,14.69
2019-02-18T16:29:44.031Z,14.52
2019-02-18T16:32:12.964Z,14.43
2019-02-18T16:34:41.952Z,14.39
2019-02-18T16:37:11.547Z,14.32
2019-02-18T16:39:40.656Z,14.21
2019-02-18T16:42:09.880Z,14.11
2019-02-18T16:44:38.874Z,14.02
2019-02-18T16:47:08.025Z,13.92
2019-02-18T16:49:37.357Z,13.79
2019-02-18T16:52:06.714Z,13.64
2019-02-18T16:54:35.686Z,13.52
2019-02-18T16:57:04.642Z,13.40
2019-02-18T16:59:33.655Z,13.30
2019-02-18T17:02:02.656Z,13.22
2019-02-18T17:04:31.695Z,13.11
2019-02-18T17:07:01.043Z,13.00
2019-02-18T17:09:30.040Z,12.91
2019-02-18T17:11:59.013Z,12.82
2019-02-18T17:14:28.058Z,12.69
2019-02-18T17:16:57.013Z,12.57
2019-02-18T17:19:25.981Z,12.44
2019-02-18T17:21:54.932Z,12.32
2019-02-18T17:24:23.926Z,12.23
2019-02-18T17:26:52.875Z,12.14
2019-02-18T17:29:21.834Z,12.03
2019-02-18T17:31:50.890Z,11.91
2019-02-18T17:34:19.852Z,11.83
2019-02-18T17:36:48.914Z,11.73
2019-02-18T17:39:18.121Z,11.61
2019-02-18T17:41:47.083Z,11.53
2019-02-18T17:44:20.211Z,11.47
2019-02-18T17:46:46.875Z,11.37
2019-02-18T17:49:15.892Z,11.26
2019-02-18T17:51:44.858Z,11.15
2019-02-18T17:54:14.226Z,11.07
2019-02-18T17:56:43.314Z,11.04
2019-02-18T17:59:14.064Z,10.98
2019-02-18T18:01:43.061Z,10.94
2019-02-18T18:04:12.054Z,10.88
2019-02-18T18:06:41.073Z,10.81
2019-02-18T18:09:10.317Z,10.77
2019-02-18T18:11:39.306Z,10.73
2019-02-18T18:14:11.379Z,10.66
2019-02-18T18:16:40.388Z,10.62
2019-02-18T18:19:09.713Z,10.55
2019-02-18T18:21:38.902Z,10.48
2019-02-18T18:24:08.049Z,10.36
2019-02-18T18:26:37.139Z,10.29
2019-02-18T18:29:06.028Z,10.24
2019-02-18T18:31:35.069Z,10.16
2019-02-18T18:34:04.020Z,10.09
2019-02-18T18:36:33.073Z,10.03
2019-02-18T18:39:02.657Z,9.97
2019-02-18T18:41:31.822Z,9.88
2019-02-18T18:44:01.148Z,9.81
2019-02-18T18:46:30.129Z,9.77
2019-02-18T18:48:59.582Z,9.70
2019-02-18T18:51:28.708Z,9.63
2019-02-18T18:53:57.918Z,9.55
2019-02-18T18:56:26.888Z,9.45
2019-02-18T18:58:56.257Z,9.39
2019-02-18T19:01:25.676Z,9.36
2019-02-18T19:03:54.684Z,9.30
2019-02-18T19:06:23.839Z,9.28
2019-02-18T19:08:53.139Z,9.24
2019-02-18T19:11:22.218Z,9.20
2019-02-18T19:13:52.060Z,9.14
2019-02-18T19:16:21.386Z,9.11
2019-02-18T19:18:50.730Z,9.07
2019-02-18T19:21:20.479Z,9.04
2019-02-18T19:23:49.486Z,9.01
2019-02-18T19:26:18.533Z,8.94
2019-02-18T19:28:48.127Z,8.96
2019-02-18T19:31:17.909Z,8.94
2019-02-18T19:33:47.666Z,8.90
2019-02-18T19:36:16.944Z,8.85
2019-02-18T19:38:46.191Z,8.80
2019-02-18T19:41:15.456Z,8.75
2019-02-18T19:43:50.170Z,8.72
2019-02-18T19:46:15.924Z,8.68
2019-02-18T19:48:45.074Z,8.63
2019-02-18T19:51:14.766Z,8.63
2019-02-18T19:53:44.466Z,8.61
2019-02-18T19:56:13.998Z,8.56
2019-02-18T19:58:43.757Z,8.50
2019-02-18T20:01:12.918Z,8.49
2019-02-18T20:03:43.250Z,8.46
2019-02-18T20:06:12.619Z,8.43
2019-02-18T20:08:42.062Z,8.37
2019-02-18T20:11:11.839Z,8.36
2019-02-18T20:13:40.907Z,8.37
2019-02-18T20:16:11.673Z,8.38
2019-02-18T20:18:41.010Z,8.38
2019-02-18T20:21:10.059Z,8.38
2019-02-18T20:23:39.459Z,8.36
2019-02-18T20:26:08.522Z,8.29
2019-02-18T20:28:37.613Z,8.23
2019-02-18T20:31:06.866Z,8.17
2019-02-18T20:33:35.879Z,8.11
2019-02-18T20:36:05.086Z,8.06
2019-02-18T20:38:34.196Z,8.00
2019-02-18T20:41:03.524Z,7.95
2019-02-18T20:43:32.877Z,7.92
2019-02-18T20:46:01.925Z,7.89
2019-02-18T20:48:30.879Z,7.87
2019-02-18T20:51:00.054Z,7.86
2019-02-18T20:53:29.384Z,7.86
2019-02-18T20:55:58.850Z,7.81
2019-02-18T20:58:28.078Z,7.72
2019-02-18T21:00:57.496Z,7.68
2019-02-18T21:03:26.584Z,7.68
2019-02-18T21:05:55.698Z,7.68
2019-02-18T21:08:25.366Z,7.67
2019-02-18T21:10:54.351Z,7.65
2019-02-18T21:13:23.458Z,7.61
2019-02-18T21:15:52.565Z,7.54
2019-02-18T21:18:21.648Z,7.51
2019-02-18T21:20:51.302Z,7.44
2019-02-18T21:23:20.286Z,7.38
2019-02-18T21:25:49.297Z,7.34
2019-02-18T21:28:18.272Z,7.30
2019-02-18T21:30:47.413Z,7.27
2019-02-18T21:33:16.425Z,7.25
2019-02-18T21:35:45.537Z,7.19
2019-02-18T21:38:14.534Z,7.16
2019-02-18T21:40:43.475Z,7.13
2019-02-18T21:43:12.464Z,7.12
2019-02-18T21:45:41.439Z,7.07
2019-02-18T21:48:10.359Z,7.03
2019-02-18T21:50:39.334Z,6.99
2019-02-18T21:53:08.303Z,6.96
2019-02-18T21:55:37.289Z,6.91
2019-02-18T21:58:06.208Z,6.87
2019-02-18T22:00:35.178Z,6.84
2019-02-18T22:03:04.188Z,6.82
2019-02-18T22:05:33.145Z,6.78
2019-02-18T22:08:02.096Z,6.77
2019-02-18T22:10:31.063Z,6.74
2019-02-18T22:13:00.089Z,6.72
2019-02-18T22:15:29.032Z,6.71
2019-02-18T22:17:58.371Z,6.69
2019-02-18T22:20:27.389Z,6.69
2019-02-18T22:22:56.370Z,6.68
2019-02-18T22:25:25.340Z,6.66
2019-02-18T22:27:54.288Z,6.62
2019-02-18T22:30:23.450Z,6.59
2019-02-18T22:32:52.613Z,6.53
2019-02-18T22:35:21.795Z,6.50
2019-02-18T22:37:51.058Z,6.45
2019-02-18T22:40:20.276Z,6.43
2019-02-18T22:42:49.417Z,6.40
2019-02-18T22:45:18.595Z,6.36
2019-02-18T22:47:47.777Z,6.32
2019-02-18T22:50:17.152Z,6.28
2019-02-18T22:52:46.345Z,6.26
2019-02-18T22:55:15.572Z,6.22
2019-02-18T22:57:44.749Z,6.17
2019-02-18T23:01:00.751Z,6.12
2019-02-18T23:03:29.939Z,6.07
2019-02-18T23:05:59.062Z,6.04
2019-02-18T23:08:28.219Z,6.06
2019-02-18T23:10:57.744Z,6.00
2019-02-18T23:13:26.928Z,5.95
2019-02-18T23:15:56.569Z,5.92
2019-02-18T23:18:25.865Z,5.91
2019-02-18T23:20:55.045Z,5.92
2019-02-18T23:23:24.272Z,5.88
2019-02-18T23:25:53.415Z,5.83
2019-02-18T23:28:22.579Z,5.77
2019-02-18T23:30:51.753Z,5.77
2019-02-18T23:33:20.906Z,5.73
2019-02-18T23:35:50.113Z,5.73
2019-02-18T23:38:19.255Z,5.71
2019-02-18T23:40:48.466Z,5.70
2019-02-18T23:43:18.437Z,5.64
2019-02-18T23:45:47.589Z,5.61
2019-02-18T23:48:16.728Z,5.59
2019-02-18T23:50:45.859Z,5.57
2019-02-18T23:53:15.007Z,5.54
2019-02-18T23:55:44.130Z,5.53
2019-02-18T23:58:13.264Z,5.53
